Thomas, New Mexico
Current Conditions -  °F | °C
As of 2:55 PM on Tuesday 25 Nov 2014 (Local Time) from KCAO Reporting Station
Clear Clear  
Wind Chill: 56°   Ceiling: Unl
Heat Index: 56°   Visibility: 10mi
Dew Point: 11°   Wind: 15mph
Humidity: 17%   Direction: 310°NW
Pressure: 29.95"   Gusts: NA
Location:  36.2639°N, 103.376°W
Report Text: KCAO 252155Z AUTO 31013KT 10SM CLR 13/M12 A2995 RMK AO2 SLP133 T01331117
Loading
Personal Weather Stations






























Interactive Weather Map New forecast layout! Learn more

10-Day Weather Forecast

Advertisements
Track Severe Weather on mobile